Flight Track Log - Related Links

Times and Time Zones

All times are in EDT time to prevent confusion due to time zone crossing. See the N201AK flight status page for this flight to view local times or setup timezone preferences in your user account.

Time Position Orientation Groundspeed Altitude Reporting Facility
EDT Latitude Longitude Course Direction KTS MPH feet Rate Location/Type
Sun 10:24:00 AM 36.3221 -79.9681 66° East  Level FlightAware Approximate
Sun 10:25:00 AM 36.3408 -79.9159 66° East  Level FlightAware Approximate
Sun 10:26:00 AM 36.3595 -79.8636 66° East  Level FlightAware Approximate
Sun 10:27:00 AM 36.3782 -79.8113 66° East  Level FlightAware Approximate
Sun 10:27:02 AM 36.3031 -79.9814 39° Northeast 121 139 6,400  Level Washington Center
Sun 10:28:00 AM 36.3968 -79.7589 66° East  Level FlightAware Approximate
Sun 10:28:02 AM 36.3189 -79.9461 61° Northeast 134 154 7,000  Level Washington Center
Sun 10:29:00 AM 36.4322 -79.7243 33° Northeast  Level FlightAware Approximate
Sun 10:29:01 AM 36.3414 -79.9008 58° Northeast 140 161 7,000  Level Washington Center
Sun 10:30:00 AM 36.4709 -79.6933 33° Northeast  Level FlightAware Approximate
Sun 10:30:02 AM 36.3639 -79.8558 58° Northeast 146 168 7,000  Level Washington Center
Sun 10:31:00 AM 36.5078 -79.6590 39° Northeast  Level FlightAware Approximate
Sun 10:31:00 AM 36.3886 -79.8056 59° Northeast 151 174 7,000  Level Washington Center
Sun 10:32:00 AM 36.5438 -79.6232 39° Northeast  Level FlightAware Approximate
Sun 10:32:01 AM 36.4108 -79.7628 57° Northeast 156 180 7,000  Level Washington Center
Sun 10:33:01 AM 36.4436 -79.7233 44° Northeast 156 180 7,000  Level Washington Center
Sun 10:34:02 AM 36.4803 -79.6889 37° Northeast 156 180 7,000  Level Washington Center
Sun 10:35:00 AM 36.5169 -79.6522 39° Northeast 162 186 7,000  Level Washington Center
Sun 10:36:00 AM 36.5581 -79.6128 38° Northeast 168 193 7,000 -49 Level Washington Center
Sun 10:37:02 AM 36.5967 -79.5786 35° Northeast 162 186 6,900 -50 Descending Washington Center
Sun 10:38:00 AM 36.6353 -79.5497 31° Northeast 162 186 6,900  Level Washington Center
Sun 10:39:00 AM 36.6739 -79.5153 36° Northeast 162 186 6,900 50 Level Washington Center
Sun 10:40:01 AM 36.7103 -79.4886 30° Northeast 162 186 7,000  Climbing Washington Center
Sun 10:41:01 AM 36.7489 -79.4569 33° Northeast 162 186 6,900  Descending Washington Center
Sun 10:42:02 AM 36.7875 -79.4250 34° Northeast 162 186 7,000  Climbing Washington Center
Sun 10:43:02 AM 36.8261 -79.3933 33° Northeast 162 186 6,900 -51 Descending Washington Center
Sun 10:44:00 AM 36.8689 -79.3564 35° Northeast 162 186 6,900 50 Level Washington Center
Sun 10:45:01 AM 36.9094 -79.3272 30° Northeast 162 186 7,000  Climbing Washington Center
Sun 10:46:01 AM 36.9481 -79.2953 33° Northeast 162 186 6,900 -50 Descending Washington Center
Sun 10:47:02 AM 36.9822 -79.2658 35° Northeast 162 186 6,900  Level Washington Center
Sun 10:48:02 AM 37.0208 -79.2339 33° Northeast 167 192 6,900  Level Washington Center
Sun 10:50:00 AM 37.0933 -79.1730 34° Northeast  Level FlightAware Approximate
Sun 10:57:00 AM 37.3510 -78.9551 34° Northeast  Level FlightAware Approximate
Sun 10:58:00 AM 37.3877 -78.9239 34° Northeast  Level FlightAware Approximate
Sun 10:59:00 AM 37.4245 -78.8926 34° Northeast  Level FlightAware Approximate
Sun 10:59:07 AM 37.4667 -78.8667 34° Northeast 171 197 6,900  Level Potomac TRACON
Sun 11:00:00 AM 37.4613 -78.8613 34° Northeast  Level FlightAware Approximate
Sun 11:00:08 AM 37.5000 -78.8333 38° Northeast 173 199 6,900  Level Potomac TRACON
Sun 11:01:00 AM 37.4980 -78.8300 34° Northeast  Level FlightAware Approximate
Sun 11:02:00 AM 37.5348 -78.7986 34° Northeast  Level FlightAware Approximate
Sun 11:02:08 AM 37.5833 -78.7667 32° Northeast 174 200 6,900  Level Potomac TRACON
Sun 11:03:00 AM 37.5715 -78.7672 34° Northeast  Level FlightAware Approximate
Sun 11:03:08 AM 37.6333 -78.7333 28° Northeast 172 198 6,900  Level Potomac TRACON
Sun 11:04:00 AM 37.6082 -78.7358 34° Northeast  Level FlightAware Approximate
Sun 11:04:08 AM 37.6667 -78.7000 38° Northeast 174 200 6,900  Level Potomac TRACON
Sun 11:05:08 AM 37.7000 -78.6667 38° Northeast 173 199 6,900  Level Potomac TRACON
Sun 11:06:08 AM 37.7500 -78.6333 28° Northeast 171 197 6,900  Level Potomac TRACON
Sun 11:07:09 AM 37.7833 -78.6000 38° Northeast 170 196 6,900  Level Potomac TRACON
Sun 11:08:09 AM 37.8167 -78.5667 38° Northeast 174 200 6,900  Level Potomac TRACON
Sun 11:09:09 AM 37.8667 -78.5333 28° Northeast 168 193 6,900  Level Potomac TRACON
Sun 11:10:09 AM 37.9000 -78.5000 38° Northeast 165 190 6,900  Level Potomac TRACON
Sun 11:11:04 AM 37.9333 -78.4667 38° Northeast 175 201 6,900  Level Potomac TRACON
Sun 11:12:04 AM 37.9833 -78.4500 15° North 176 203 6,900  Level Potomac TRACON
Sun 11:13:10 AM 38.0167 -78.4000 50° Northeast 166 191 6,900  Level Potomac TRACON
Sun 11:14:05 AM 38.0500 -78.3667 38° Northeast 170 196 6,900  Level Potomac TRACON
Sun 11:15:11 AM 38.0833 -78.3333 38° Northeast 167 192 6,900  Level Potomac TRACON
Sun 11:16:05 AM 38.1167 -78.3000 38° Northeast 169 194 6,900  Level Potomac TRACON
Sun 11:17:05 AM 38.1667 -78.2667 28° Northeast 173 199 6,900 -190 Level Potomac TRACON
Sun 11:18:11 AM 38.2167 -78.2333 28° Northeast 187 215 6,500 -381 Descending Potomac TRACON
Sun 11:19:11 AM 38.2500 -78.2000 38° Northeast 188 216 6,100 -347 Descending Potomac TRACON
Sun 11:20:12 AM 38.3000 -78.1667 28° Northeast 186 214 5,800 -347 Descending Potomac TRACON
Sun 11:21:12 AM 38.3333 -78.1333 38° Northeast 184 212 5,400 -300 Descending Potomac TRACON
Sun 11:22:12 AM 38.3833 -78.1000 28° Northeast 176 203 5,200 -200 Descending Potomac TRACON
Sun 11:23:12 AM 38.4167 -78.0500 50° Northeast 171 197 5,000 -150 Descending Potomac TRACON
Sun 11:24:12 AM 38.4500 -78.0167 38° Northeast 167 192 4,900 -52 Descending Potomac TRACON
Sun 11:25:07 AM 38.5000 -78.0000 15° North 163 188 4,900 -50 Level Potomac TRACON
Sun 11:26:13 AM 38.5333 -77.9500 50° Northeast 164 189 4,800 -238 Descending Potomac TRACON
Sun 11:27:13 AM 38.5667 -77.9167 38° Northeast 175 201 4,400 -133 Descending Potomac TRACON
Sun 11:29:13 AM 38.6500 -77.8500 32° Northeast 164 189 4,400 -33 Level Potomac TRACON
Sun 11:30:14 AM 38.6833 -77.8333 21° North 167 192 4,300 -200 Descending Potomac TRACON
Sun 11:31:13 AM 38.7333 -77.8000 27° Northeast 182 209 4,000 -200 Descending Potomac TRACON
Sun 11:32:14 AM 38.7833 -77.8000 360° North 175 201 3,900 -198 Descending Potomac TRACON
Sun 11:33:14 AM 38.8333 -77.8000 360° North 178 205 3,600 -400 Descending Potomac TRACON
Sun 11:35:00 AM 38.8944 -77.7397 27° Northeast  Level Estimated
Sun 11:37:14 AM 39.0000 -77.7167 27° Northeast 164 189 1,900  Level Potomac TRACON
Sun 11:39:00 AM 39.0411 -77.6329 27° Northeast  Level Estimated
Sun 11:41:14 AM 39.0833 -77.5333 27° Northeast 124 143 1,100  Level Potomac TRACON
Sun 11:42:00 AM 39.0667 -77.5500 27° Northeast  Level FlightAware Approximate
Sun 11:42:15 AM 39.1000 -77.5667 303° West 90 104 900  Level Potomac TRACON
Sun 11:46:00 AM 39.0667 -77.5500 27° Northeast  Level FlightAware Approximate

Login

Don't have an account? Register now (free) for customized features, flight alerts, and more!